sensor_id;sensor_type;location;lat;lon;timestamp;temperature;humidity
11474;DHT22;5793;52.238;13.438;2023-04-03T00:00:38;-1.00;99.90
11474;DHT22;5793;52.238;13.438;2023-04-03T00:03:06;-1.00;99.90
11474;DHT22;5793;52.238;13.438;2023-04-03T00:05:34;-0.90;99.90
11474;DHT22;5793;52.238;13.438;2023-04-03T00:08:02;-0.90;99.90
11474;DHT22;5793;52.238;13.438;2023-04-03T00:10:31;-0.90;99.90
11474;DHT22;5793;52.238;13.438;2023-04-03T00:12:58;-0.80;99.90
11474;DHT22;5793;52.238;13.438;2023-04-03T00:15:28;-0.80;99.90
11474;DHT22;5793;52.238;13.438;2023-04-03T00:17:56;-0.70;99.90
11474;DHT22;5793;52.238;13.438;2023-04-03T00:20:23;-0.80;99.90
11474;DHT22;5793;52.238;13.438;2023-04-03T00:22:52;-0.80;99.90
11474;DHT22;5793;52.238;13.438;2023-04-03T00:25:20;-0.80;99.90
11474;DHT22;5793;52.238;13.438;2023-04-03T00:27:48;-0.80;99.90
11474;DHT22;5793;52.238;13.438;2023-04-03T00:30:18;-0.90;99.90
11474;DHT22;5793;52.238;13.438;2023-04-03T00:32:49;-0.90;99.90
11474;DHT22;5793;52.238;13.438;2023-04-03T00:35:17;-0.90;99.90
11474;DHT22;5793;52.238;13.438;2023-04-03T00:37:47;-0.90;99.90
11474;DHT22;5793;52.238;13.438;2023-04-03T00:40:15;-0.90;99.90
11474;DHT22;5793;52.238;13.438;2023-04-03T00:42:45;-0.90;99.90
11474;DHT22;5793;52.238;13.438;2023-04-03T00:45:27;-0.90;99.90
11474;DHT22;5793;52.238;13.438;2023-04-03T00:47:57;-1.00;99.90
11474;DHT22;5793;52.238;13.438;2023-04-03T00:50:27;-1.10;99.90
11474;DHT22;5793;52.238;13.438;2023-04-03T00:52:56;-1.00;99.90
11474;DHT22;5793;52.238;13.438;2023-04-03T00:55:25;-1.10;99.90
11474;DHT22;5793;52.238;13.438;2023-04-03T00:57:53;-1.10;99.90
11474;DHT22;5793;52.238;13.438;2023-04-03T01:00:22;-1.10;99.90
11474;DHT22;5793;52.238;13.438;2023-04-03T01:02:51;-1.10;99.90
11474;DHT22;5793;52.238;13.438;2023-04-03T01:05:21;-1.10;99.90
11474;DHT22;5793;52.238;13.438;2023-04-03T01:07:57;-1.20;99.90
11474;DHT22;5793;52.238;13.438;2023-04-03T01:10:25;-1.20;99.90
11474;DHT22;5793;52.238;13.438;2023-04-03T01:12:53;-1.20;99.90
11474;DHT22;5793;52.238;13.438;2023-04-03T01:15:22;-1.20;99.90
11474;DHT22;5793;52.238;13.438;2023-04-03T01:17:52;-1.30;99.90
11474;DHT22;5793;52.238;13.438;2023-04-03T01:23:47;-1.40;99.90
11474;DHT22;5793;52.238;13.438;2023-04-03T01:26:19;-1.50;99.90
11474;DHT22;5793;52.238;13.438;2023-04-03T01:28:47;-1.50;99.90
11474;DHT22;5793;52.238;13.438;2023-04-03T01:31:20;-1.50;99.90
11474;DHT22;5793;52.238;13.438;2023-04-03T01:33:51;-1.50;99.90
11474;DHT22;5793;52.238;13.438;2023-04-03T01:36:22;-1.60;99.90
11474;DHT22;5793;52.238;13.438;2023-04-03T01:38:50;-1.60;99.90
11474;DHT22;5793;52.238;13.438;2023-04-03T01:41:19;-1.70;99.90
11474;DHT22;5793;52.238;13.438;2023-04-03T01:43:47;-1.70;99.90
11474;DHT22;5793;52.238;13.438;2023-04-03T01:46:15;-1.70;99.90
11474;DHT22;5793;52.238;13.438;2023-04-03T01:48:43;-1.80;99.90
11474;DHT22;5793;52.238;13.438;2023-04-03T01:51:13;-1.80;99.90
11474;DHT22;5793;52.238;13.438;2023-04-03T01:53:40;-1.80;99.90
11474;DHT22;5793;52.238;13.438;2023-04-03T01:56:08;-1.70;99.90
11474;DHT22;5793;52.238;13.438;2023-04-03T01:58:36;-1.80;99.90
11474;DHT22;5793;52.238;13.438;2023-04-03T02:01:05;-1.80;99.90
11474;DHT22;5793;52.238;13.438;2023-04-03T02:03:33;-1.90;99.90
11474;DHT22;5793;52.238;13.438;2023-04-03T02:06:01;-1.90;99.90
11474;DHT22;5793;52.238;13.438;2023-04-03T02:08:30;-1.90;99.90
11474;DHT22;5793;52.238;13.438;2023-04-03T02:10:58;-2.00;99.90
11474;DHT22;5793;52.238;13.438;2023-04-03T02:13:25;-2.00;99.90
11474;DHT22;5793;52.238;13.438;2023-04-03T02:15:53;-2.10;99.90
11474;DHT22;5793;52.238;13.438;2023-04-03T02:18:21;-2.10;99.90
11474;DHT22;5793;52.238;13.438;2023-04-03T02:20:49;-2.20;99.90
11474;DHT22;5793;52.238;13.438;2023-04-03T02:23:16;-2.20;99.90
11474;DHT22;5793;52.238;13.438;2023-04-03T02:25:45;-2.30;99.90
11474;DHT22;5793;52.238;13.438;2023-04-03T02:28:15;-2.20;99.90
11474;DHT22;5793;52.238;13.438;2023-04-03T02:30:43;-2.20;99.90
11474;DHT22;5793;52.238;13.438;2023-04-03T02:33:11;-2.10;99.90
11474;DHT22;5793;52.238;13.438;2023-04-03T02:35:39;-2.10;99.90
11474;DHT22;5793;52.238;13.438;2023-04-03T02:38:07;-2.10;99.90
11474;DHT22;5793;52.238;13.438;2023-04-03T02:40:35;-2.10;99.90
11474;DHT22;5793;52.238;13.438;2023-04-03T02:43:04;-2.10;99.90
11474;DHT22;5793;52.238;13.438;2023-04-03T02:45:32;-2.20;99.90
11474;DHT22;5793;52.238;13.438;2023-04-03T02:48:00;-2.10;99.90
11474;DHT22;5793;52.238;13.438;2023-04-03T02:50:28;-2.10;99.90
11474;DHT22;5793;52.238;13.438;2023-04-03T02:52:56;-2.10;99.90
11474;DHT22;5793;52.238;13.438;2023-04-03T02:55:24;-2.10;99.90
11474;DHT22;5793;52.238;13.438;2023-04-03T02:57:51;-2.10;99.90
11474;DHT22;5793;52.238;13.438;2023-04-03T03:00:21;-2.10;99.90
11474;DHT22;5793;52.238;13.438;2023-04-03T03:02:49;-2.10;99.90
11474;DHT22;5793;52.238;13.438;2023-04-03T03:05:17;-2.10;99.90
11474;DHT22;5793;52.238;13.438;2023-04-03T03:07:45;-2.20;99.90
11474;DHT22;5793;52.238;13.438;2023-04-03T03:10:13;-2.30;99.90
11474;DHT22;5793;52.238;13.438;2023-04-03T03:12:41;-2.40;99.90
11474;DHT22;5793;52.238;13.438;2023-04-03T03:15:09;-2.40;99.90
11474;DHT22;5793;52.238;13.438;2023-04-03T03:17:38;-2.30;99.90
11474;DHT22;5793;52.238;13.438;2023-04-03T03:20:07;-2.30;99.90
11474;DHT22;5793;52.238;13.438;2023-04-03T03:22:36;-2.30;99.90
11474;DHT22;5793;52.238;13.438;2023-04-03T03:25:04;-2.30;99.90
11474;DHT22;5793;52.238;13.438;2023-04-03T03:27:32;-2.30;99.90
11474;DHT22;5793;52.238;13.438;2023-04-03T03:30:00;-2.30;99.90
11474;DHT22;5793;52.238;13.438;2023-04-03T03:32:28;-2.40;99.90
11474;DHT22;5793;52.238;13.438;2023-04-03T03:34:57;-2.40;99.90
11474;DHT22;5793;52.238;13.438;2023-04-03T03:37:25;-2.40;99.90
11474;DHT22;5793;52.238;13.438;2023-04-03T03:39:53;-2.30;99.90
11474;DHT22;5793;52.238;13.438;2023-04-03T03:42:21;-2.30;99.90
11474;DHT22;5793;52.238;13.438;2023-04-03T03:44:49;-2.20;99.90
11474;DHT22;5793;52.238;13.438;2023-04-03T03:47:18;-2.10;99.90
11474;DHT22;5793;52.238;13.438;2023-04-03T03:49:46;-2.10;99.90
11474;DHT22;5793;52.238;13.438;2023-04-03T03:52:15;-2.10;99.90
11474;DHT22;5793;52.238;13.438;2023-04-03T03:54:43;-2.10;99.90
11474;DHT22;5793;52.238;13.438;2023-04-03T03:57:11;-2.20;99.90
11474;DHT22;5793;52.238;13.438;2023-04-03T03:59:39;-2.20;99.90
11474;DHT22;5793;52.238;13.438;2023-04-03T04:02:08;-2.20;99.90
11474;DHT22;5793;52.238;13.438;2023-04-03T04:04:36;-2.30;99.90
11474;DHT22;5793;52.238;13.438;2023-04-03T04:07:03;-2.30;99.90
11474;DHT22;5793;52.238;13.438;2023-04-03T04:09:33;-2.40;99.90
11474;DHT22;5793;52.238;13.438;2023-04-03T04:12:00;-2.40;99.90
11474;DHT22;5793;52.238;13.438;2023-04-03T04:14:28;-2.40;99.90
11474;DHT22;5793;52.238;13.438;2023-04-03T04:16:56;-2.50;99.90
11474;DHT22;5793;52.238;13.438;2023-04-03T04:19:24;-2.50;99.90
11474;DHT22;5793;52.238;13.438;2023-04-03T04:21:52;-2.50;99.90
11474;DHT22;5793;52.238;13.438;2023-04-03T04:24:19;-2.60;99.90
11474;DHT22;5793;52.238;13.438;2023-04-03T04:26:50;-2.60;99.90
11474;DHT22;5793;52.238;13.438;2023-04-03T04:29:18;-2.60;99.90
11474;DHT22;5793;52.238;13.438;2023-04-03T04:31:46;-2.60;99.90
11474;DHT22;5793;52.238;13.438;2023-04-03T04:34:14;-2.60;99.90
11474;DHT22;5793;52.238;13.438;2023-04-03T04:36:42;-2.60;99.90
11474;DHT22;5793;52.238;13.438;2023-04-03T04:39:10;-2.60;99.90
11474;DHT22;5793;52.238;13.438;2023-04-03T04:41:38;-2.70;99.90
11474;DHT22;5793;52.238;13.438;2023-04-03T04:44:07;-2.60;99.90
11474;DHT22;5793;52.238;13.438;2023-04-03T04:46:34;-2.60;99.90
11474;DHT22;5793;52.238;13.438;2023-04-03T04:49:02;-2.60;99.90
11474;DHT22;5793;52.238;13.438;2023-04-03T04:51:30;-2.60;99.90
11474;DHT22;5793;52.238;13.438;2023-04-03T04:54:10;-2.50;99.90
11474;DHT22;5793;52.238;13.438;2023-04-03T04:56:38;-2.40;99.90
11474;DHT22;5793;52.238;13.438;2023-04-03T04:59:07;-2.30;99.90
11474;DHT22;5793;52.238;13.438;2023-04-03T05:01:34;-2.30;99.90
11474;DHT22;5793;52.238;13.438;2023-04-03T05:04:02;-2.20;99.90
11474;DHT22;5793;52.238;13.438;2023-04-03T05:06:30;-2.10;99.90
11474;DHT22;5793;52.238;13.438;2023-04-03T05:08:59;-2.10;99.90
11474;DHT22;5793;52.238;13.438;2023-04-03T05:11:27;-2.10;99.90
11474;DHT22;5793;52.238;13.438;2023-04-03T05:13:55;-2.10;99.90
11474;DHT22;5793;52.238;13.438;2023-04-03T05:16:24;-2.10;99.90
11474;DHT22;5793;52.238;13.438;2023-04-03T05:18:52;-2.00;99.90
11474;DHT22;5793;52.238;13.438;2023-04-03T05:21:19;-2.00;99.90
11474;DHT22;5793;52.238;13.438;2023-04-03T05:23:49;-2.00;99.90
11474;DHT22;5793;52.238;13.438;2023-04-03T05:26:17;-2.00;99.90
11474;DHT22;5793;52.238;13.438;2023-04-03T05:28:45;-2.00;99.90
11474;DHT22;5793;52.238;13.438;2023-04-03T05:31:13;-2.00;99.90
11474;DHT22;5793;52.238;13.438;2023-04-03T05:33:43;-1.90;99.90
11474;DHT22;5793;52.238;13.438;2023-04-03T05:36:10;-1.90;99.90
11474;DHT22;5793;52.238;13.438;2023-04-03T05:38:39;-1.80;99.90
11474;DHT22;5793;52.238;13.438;2023-04-03T05:41:07;-1.80;99.90
11474;DHT22;5793;52.238;13.438;2023-04-03T05:43:35;-1.70;99.90
11474;DHT22;5793;52.238;13.438;2023-04-03T05:46:08;-1.60;99.90
11474;DHT22;5793;52.238;13.438;2023-04-03T05:48:36;-1.50;99.90
11474;DHT22;5793;52.238;13.438;2023-04-03T05:51:06;-1.40;99.90
11474;DHT22;5793;52.238;13.438;2023-04-03T05:53:36;-1.30;99.90
11474;DHT22;5793;52.238;13.438;2023-04-03T05:56:04;-1.10;99.90
11474;DHT22;5793;52.238;13.438;2023-04-03T05:58:32;-0.90;99.90
11474;DHT22;5793;52.238;13.438;2023-04-03T06:01:00;-0.70;99.90
11474;DHT22;5793;52.238;13.438;2023-04-03T06:03:28;-0.50;99.90
11474;DHT22;5793;52.238;13.438;2023-04-03T06:05:56;-0.30;99.90
11474;DHT22;5793;52.238;13.438;2023-04-03T06:08:25;-0.10;99.90
11474;DHT22;5793;52.238;13.438;2023-04-03T06:10:53;0.00;99.90
11474;DHT22;5793;52.238;13.438;2023-04-03T06:13:20;0.10;99.90
11474;DHT22;5793;52.238;13.438;2023-04-03T06:15:48;0.30;99.90
11474;DHT22;5793;52.238;13.438;2023-04-03T06:18:16;0.40;99.90
11474;DHT22;5793;52.238;13.438;2023-04-03T06:20:44;0.40;99.90
11474;DHT22;5793;52.238;13.438;2023-04-03T06:23:13;0.50;99.90
11474;DHT22;5793;52.238;13.438;2023-04-03T06:25:42;0.60;99.90
11474;DHT22;5793;52.238;13.438;2023-04-03T06:28:10;0.70;99.90
11474;DHT22;5793;52.238;13.438;2023-04-03T06:30:38;0.80;99.90
11474;DHT22;5793;52.238;13.438;2023-04-03T06:33:06;0.80;99.90
11474;DHT22;5793;52.238;13.438;2023-04-03T06:35:34;0.90;99.90
11474;DHT22;5793;52.238;13.438;2023-04-03T06:38:03;0.90;99.90
11474;DHT22;5793;52.238;13.438;2023-04-03T06:40:36;0.90;99.90
11474;DHT22;5793;52.238;13.438;2023-04-03T06:43:05;1.00;99.90
11474;DHT22;5793;52.238;13.438;2023-04-03T06:45:34;1.00;99.90
11474;DHT22;5793;52.238;13.438;2023-04-03T06:48:03;1.00;99.90
11474;DHT22;5793;52.238;13.438;2023-04-03T06:50:32;1.20;99.90
11474;DHT22;5793;52.238;13.438;2023-04-03T06:52:59;1.30;99.90
11474;DHT22;5793;52.238;13.438;2023-04-03T06:55:29;1.40;99.90
11474;DHT22;5793;52.238;13.438;2023-04-03T06:57:57;1.50;99.90
11474;DHT22;5793;52.238;13.438;2023-04-03T07:00:26;1.60;99.90
11474;DHT22;5793;52.238;13.438;2023-04-03T07:02:54;1.80;99.90
11474;DHT22;5793;52.238;13.438;2023-04-03T07:05:23;1.90;99.90
11474;DHT22;5793;52.238;13.438;2023-04-03T07:07:51;2.20;99.90
11474;DHT22;5793;52.238;13.438;2023-04-03T07:10:19;2.20;99.90
11474;DHT22;5793;52.238;13.438;2023-04-03T07:12:47;2.20;99.90
11474;DHT22;5793;52.238;13.438;2023-04-03T07:15:15;2.20;99.90
11474;DHT22;5793;52.238;13.438;2023-04-03T07:17:44;2.20;99.90
11474;DHT22;5793;52.238;13.438;2023-04-03T07:20:12;2.40;99.90
11474;DHT22;5793;52.238;13.438;2023-04-03T07:22:41;2.50;99.90
11474;DHT22;5793;52.238;13.438;2023-04-03T07:25:09;2.70;99.90
11474;DHT22;5793;52.238;13.438;2023-04-03T07:27:37;3.20;99.90
11474;DHT22;5793;52.238;13.438;2023-04-03T07:30:06;3.60;99.90
11474;DHT22;5793;52.238;13.438;2023-04-03T07:32:35;3.80;99.90
11474;DHT22;5793;52.238;13.438;2023-04-03T07:35:05;3.60;99.90
11474;DHT22;5793;52.238;13.438;2023-04-03T07:37:33;3.60;99.90
11474;DHT22;5793;52.238;13.438;2023-04-03T07:40:01;3.60;99.90
11474;DHT22;5793;52.238;13.438;2023-04-03T07:42:30;3.80;99.90
11474;DHT22;5793;52.238;13.438;2023-04-03T07:44:58;4.40;99.90
11474;DHT22;5793;52.238;13.438;2023-04-03T07:47:26;4.60;99.90
11474;DHT22;5793;52.238;13.438;2023-04-03T07:49:54;4.80;99.90
11474;DHT22;5793;52.238;13.438;2023-04-03T07:52:25;5.10;99.90
11474;DHT22;5793;52.238;13.438;2023-04-03T07:54:52;5.10;99.90
11474;DHT22;5793;52.238;13.438;2023-04-03T07:57:20;4.90;99.90
11474;DHT22;5793;52.238;13.438;2023-04-03T07:59:48;5.00;99.90
11474;DHT22;5793;52.238;13.438;2023-04-03T08:02:16;5.10;99.90
11474;DHT22;5793;52.238;13.438;2023-04-03T08:04:44;4.80;99.90
11474;DHT22;5793;52.238;13.438;2023-04-03T08:07:12;4.80;99.90
11474;DHT22;5793;52.238;13.438;2023-04-03T08:09:41;5.00;99.90
11474;DHT22;5793;52.238;13.438;2023-04-03T08:12:08;4.80;99.90
11474;DHT22;5793;52.238;13.438;2023-04-03T08:14:38;4.80;99.90
11474;DHT22;5793;52.238;13.438;2023-04-03T08:17:05;5.00;99.90
11474;DHT22;5793;52.238;13.438;2023-04-03T08:19:36;5.00;99.90
11474;DHT22;5793;52.238;13.438;2023-04-03T08:22:03;5.00;99.90
11474;DHT22;5793;52.238;13.438;2023-04-03T08:24:32;5.00;99.90
11474;DHT22;5793;52.238;13.438;2023-04-03T08:27:02;5.10;99.90
11474;DHT22;5793;52.238;13.438;2023-04-03T08:29:30;6.20;99.90
11474;DHT22;5793;52.238;13.438;2023-04-03T08:32:00;7.60;98.80
11474;DHT22;5793;52.238;13.438;2023-04-03T08:34:27;8.00;98.20
11474;DHT22;5793;52.238;13.438;2023-04-03T08:36:55;10.00;80.60
11474;DHT22;5793;52.238;13.438;2023-04-03T08:39:23;12.70;66.90
11474;DHT22;5793;52.238;13.438;2023-04-03T08:41:51;12.70;58.30
11474;DHT22;5793;52.238;13.438;2023-04-03T08:44:25;14.80;55.00
11474;DHT22;5793;52.238;13.438;2023-04-03T08:47:11;15.70;52.00
11474;DHT22;5793;52.238;13.438;2023-04-03T08:49:45;16.20;49.00
11474;DHT22;5793;52.238;13.438;2023-04-03T08:52:19;14.80;49.40
11474;DHT22;5793;52.238;13.438;2023-04-03T08:54:51;13.30;54.70
11474;DHT22;5793;52.238;13.438;2023-04-03T08:57:25;12.70;54.30
11474;DHT22;5793;52.238;13.438;2023-04-03T08:59:57;14.10;51.70
11474;DHT22;5793;52.238;13.438;2023-04-03T09:02:28;13.70;52.90
11474;DHT22;5793;52.238;13.438;2023-04-03T09:04:57;12.30;54.20
11474;DHT22;5793;52.238;13.438;2023-04-03T09:07:33;10.30;54.90
11474;DHT22;5793;52.238;13.438;2023-04-03T09:10:03;8.60;59.80
11474;DHT22;5793;52.238;13.438;2023-04-03T09:12:36;7.40;65.20
11474;DHT22;5793;52.238;13.438;2023-04-03T09:15:15;6.80;67.50
11474;DHT22;5793;52.238;13.438;2023-04-03T09:17:59;6.60;71.50
11474;DHT22;5793;52.238;13.438;2023-04-03T09:20:39;6.50;72.90
11474;DHT22;5793;52.238;13.438;2023-04-03T09:23:16;6.00;78.00
11474;DHT22;5793;52.238;13.438;2023-04-03T09:25:46;5.80;80.80
11474;DHT22;5793;52.238;13.438;2023-04-03T09:28:14;6.00;77.40
11474;DHT22;5793;52.238;13.438;2023-04-03T09:30:43;6.10;82.10
11474;DHT22;5793;52.238;13.438;2023-04-03T09:33:12;5.90;86.60
11474;DHT22;5793;52.238;13.438;2023-04-03T09:35:42;6.00;95.30
11474;DHT22;5793;52.238;13.438;2023-04-03T09:38:17;7.10;84.30
11474;DHT22;5793;52.238;13.438;2023-04-03T09:40:47;10.50;65.80
11474;DHT22;5793;52.238;13.438;2023-04-03T09:43:25;11.50;59.60
11474;DHT22;5793;52.238;13.438;2023-04-03T09:45:56;10.70;59.80
11474;DHT22;5793;52.238;13.438;2023-04-03T09:48:55;9.60;61.60
11474;DHT22;5793;52.238;13.438;2023-04-03T09:51:35;8.70;65.80
11474;DHT22;5793;52.238;13.438;2023-04-03T09:54:31;8.30;67.50
11474;DHT22;5793;52.238;13.438;2023-04-03T09:57:05;7.60;67.60
11474;DHT22;5793;52.238;13.438;2023-04-03T09:59:34;6.90;70.30
11474;DHT22;5793;52.238;13.438;2023-04-03T10:02:16;6.70;71.20
11474;DHT22;5793;52.238;13.438;2023-04-03T10:04:49;6.70;72.90
11474;DHT22;5793;52.238;13.438;2023-04-03T10:07:35;8.60;70.90
11474;DHT22;5793;52.238;13.438;2023-04-03T10:10:17;11.20;59.40
11474;DHT22;5793;52.238;13.438;2023-04-03T10:12:47;10.70;58.10
11474;DHT22;5793;52.238;13.438;2023-04-03T10:15:16;9.40;59.70
11474;DHT22;5793;52.238;13.438;2023-04-03T10:17:56;8.00;60.80
11474;DHT22;5793;52.238;13.438;2023-04-03T10:20:32;8.20;64.40
11474;DHT22;5793;52.238;13.438;2023-04-03T10:23:15;8.70;66.50
11474;DHT22;5793;52.238;13.438;2023-04-03T10:25:54;10.70;62.40
11474;DHT22;5793;52.238;13.438;2023-04-03T10:28:29;13.80;51.60
11474;DHT22;5793;52.238;13.438;2023-04-03T10:31:02;13.10;53.00
11474;DHT22;5793;52.238;13.438;2023-04-03T10:33:44;11.10;55.00
11474;DHT22;5793;52.238;13.438;2023-04-03T10:36:23;9.70;60.20
11474;DHT22;5793;52.238;13.438;2023-04-03T10:39:00;8.50;63.50
11474;DHT22;5793;52.238;13.438;2023-04-03T10:41:37;8.20;65.10
11474;DHT22;5793;52.238;13.438;2023-04-03T10:44:15;9.10;61.50
11474;DHT22;5793;52.238;13.438;2023-04-03T10:46:47;8.70;59.50
11474;DHT22;5793;52.238;13.438;2023-04-03T10:49:31;8.30;62.30
11474;DHT22;5793;52.238;13.438;2023-04-03T10:52:07;7.80;63.50
11474;DHT22;5793;52.238;13.438;2023-04-03T10:54:41;7.70;65.90
11474;DHT22;5793;52.238;13.438;2023-04-03T10:57:12;7.70;64.00
11474;DHT22;5793;52.238;13.438;2023-04-03T10:59:43;7.40;67.10
11474;DHT22;5793;52.238;13.438;2023-04-03T11:02:17;7.00;69.20
11474;DHT22;5793;52.238;13.438;2023-04-03T11:04:51;6.70;69.40
11474;DHT22;5793;52.238;13.438;2023-04-03T11:07:21;6.60;73.30
11474;DHT22;5793;52.238;13.438;2023-04-03T11:09:52;6.40;72.60
11474;DHT22;5793;52.238;13.438;2023-04-03T11:12:26;6.60;70.50
11474;DHT22;5793;52.238;13.438;2023-04-03T11:14:56;7.20;69.60
11474;DHT22;5793;52.238;13.438;2023-04-03T11:17:30;7.40;67.80
11474;DHT22;5793;52.238;13.438;2023-04-03T11:20:06;7.50;68.70
11474;DHT22;5793;52.238;13.438;2023-04-03T11:22:39;7.70;71.50
11474;DHT22;5793;52.238;13.438;2023-04-03T11:25:17;7.70;71.10
11474;DHT22;5793;52.238;13.438;2023-04-03T11:27:52;7.60;72.10
11474;DHT22;5793;52.238;13.438;2023-04-03T11:30:23;7.60;70.90
11474;DHT22;5793;52.238;13.438;2023-04-03T11:33:17;7.10;70.80
11474;DHT22;5793;52.238;13.438;2023-04-03T11:35:50;6.50;73.70
11474;DHT22;5793;52.238;13.438;2023-04-03T11:38:22;6.30;74.60
11474;DHT22;5793;52.238;13.438;2023-04-03T11:40:51;6.20;74.10
11474;DHT22;5793;52.238;13.438;2023-04-03T11:43:24;5.80;74.70
11474;DHT22;5793;52.238;13.438;2023-04-03T11:45:55;5.60;76.20
11474;DHT22;5793;52.238;13.438;2023-04-03T11:48:48;5.70;82.20
11474;DHT22;5793;52.238;13.438;2023-04-03T11:51:41;6.10;82.30
11474;DHT22;5793;52.238;13.438;2023-04-03T11:54:35;6.70;82.00
11474;DHT22;5793;52.238;13.438;2023-04-03T11:57:47;6.80;81.70
11474;DHT22;5793;52.238;13.438;2023-04-03T12:07:11;6.60;96.00
11474;DHT22;5793;52.238;13.438;2023-04-03T12:10:15;6.50;90.90
11474;DHT22;5793;52.238;13.438;2023-04-03T12:12:59;6.30;90.40
11474;DHT22;5793;52.238;13.438;2023-04-03T12:15:50;6.20;91.60
11474;DHT22;5793;52.238;13.438;2023-04-03T12:18:39;6.20;99.90
11474;DHT22;5793;52.238;13.438;2023-04-03T12:21:08;6.20;99.90
11474;DHT22;5793;52.238;13.438;2023-04-03T12:24:00;6.40;97.80
11474;DHT22;5793;52.238;13.438;2023-04-03T12:26:33;6.50;96.80
11474;DHT22;5793;52.238;13.438;2023-04-03T12:29:17;6.80;97.30
11474;DHT22;5793;52.238;13.438;2023-04-03T12:31:55;7.00;90.30
11474;DHT22;5793;52.238;13.438;2023-04-03T12:34:41;6.90;90.50
11474;DHT22;5793;52.238;13.438;2023-04-03T12:37:21;7.30;87.70
11474;DHT22;5793;52.238;13.438;2023-04-03T12:40:04;7.30;85.10
11474;DHT22;5793;52.238;13.438;2023-04-03T12:45:40;6.80;79.00
11474;DHT22;5793;52.238;13.438;2023-04-03T12:48:14;6.70;85.90
11474;DHT22;5793;52.238;13.438;2023-04-03T12:50:44;6.50;85.60
11474;DHT22;5793;52.238;13.438;2023-04-03T12:53:13;6.50;84.60
11474;DHT22;5793;52.238;13.438;2023-04-03T12:55:43;6.60;90.80
11474;DHT22;5793;52.238;13.438;2023-04-03T12:58:16;6.60;89.10
11474;DHT22;5793;52.238;13.438;2023-04-03T13:00:44;6.60;85.00
11474;DHT22;5793;52.238;13.438;2023-04-03T13:03:22;6.50;92.60
11474;DHT22;5793;52.238;13.438;2023-04-03T13:05:51;6.40;90.40
11474;DHT22;5793;52.238;13.438;2023-04-03T13:08:19;6.30;86.30
11474;DHT22;5793;52.238;13.438;2023-04-03T13:10:53;6.30;86.40
11474;DHT22;5793;52.238;13.438;2023-04-03T13:13:22;6.20;89.60
11474;DHT22;5793;52.238;13.438;2023-04-03T13:15:50;6.00;90.40
11474;DHT22;5793;52.238;13.438;2023-04-03T13:18:27;5.80;92.30
11474;DHT22;5793;52.238;13.438;2023-04-03T13:21:00;5.80;97.30
11474;DHT22;5793;52.238;13.438;2023-04-03T13:23:29;5.80;93.30
11474;DHT22;5793;52.238;13.438;2023-04-03T13:25:59;5.90;91.90
11474;DHT22;5793;52.238;13.438;2023-04-03T13:28:31;6.00;92.60
11474;DHT22;5793;52.238;13.438;2023-04-03T13:31:04;6.20;91.90
11474;DHT22;5793;52.238;13.438;2023-04-03T13:33:34;6.30;90.70
11474;DHT22;5793;52.238;13.438;2023-04-03T13:36:07;6.10;92.20
11474;DHT22;5793;52.238;13.438;2023-04-03T13:38:35;6.20;92.60
11474;DHT22;5793;52.238;13.438;2023-04-03T13:41:23;6.30;91.00
11474;DHT22;5793;52.238;13.438;2023-04-03T13:43:51;6.20;91.70
11474;DHT22;5793;52.238;13.438;2023-04-03T13:46:32;6.30;94.10
11474;DHT22;5793;52.238;13.438;2023-04-03T13:49:17;6.50;92.20
11474;DHT22;5793;52.238;13.438;2023-04-03T13:51:45;6.90;91.90
11474;DHT22;5793;52.238;13.438;2023-04-03T13:54:32;6.80;86.10
11474;DHT22;5793;52.238;13.438;2023-04-03T13:57:03;6.70;88.50
11474;DHT22;5793;52.238;13.438;2023-04-03T13:59:32;6.60;89.80
11474;DHT22;5793;52.238;13.438;2023-04-03T14:02:15;6.50;92.60
11474;DHT22;5793;52.238;13.438;2023-04-03T14:04:50;6.40;88.00
11474;DHT22;5793;52.238;13.438;2023-04-03T14:07:19;6.20;90.30
11474;DHT22;5793;52.238;13.438;2023-04-03T14:09:48;6.20;92.50
11474;DHT22;5793;52.238;13.438;2023-04-03T14:12:24;6.30;91.50
11474;DHT22;5793;52.238;13.438;2023-04-03T14:14:58;6.30;92.70
11474;DHT22;5793;52.238;13.438;2023-04-03T14:17:26;6.50;88.80
11474;DHT22;5793;52.238;13.438;2023-04-03T14:19:56;6.60;90.70
11474;DHT22;5793;52.238;13.438;2023-04-03T14:22:27;6.80;90.00
11474;DHT22;5793;52.238;13.438;2023-04-03T14:24:56;7.00;87.50
11474;DHT22;5793;52.238;13.438;2023-04-03T14:27:28;7.00;89.00
11474;DHT22;5793;52.238;13.438;2023-04-03T14:29:57;7.10;87.60
11474;DHT22;5793;52.238;13.438;2023-04-03T14:32:26;6.80;87.50
11474;DHT22;5793;52.238;13.438;2023-04-03T14:34:55;6.50;90.00
11474;DHT22;5793;52.238;13.438;2023-04-03T14:37:25;6.30;93.00
11474;DHT22;5793;52.238;13.438;2023-04-03T14:39:57;6.30;96.40
11474;DHT22;5793;52.238;13.438;2023-04-03T14:42:28;6.10;96.10
11474;DHT22;5793;52.238;13.438;2023-04-03T14:44:57;6.00;99.90
11474;DHT22;5793;52.238;13.438;2023-04-03T14:47:27;6.00;99.90
11474;DHT22;5793;52.238;13.438;2023-04-03T14:49:58;5.90;99.90
11474;DHT22;5793;52.238;13.438;2023-04-03T14:52:29;5.80;99.90
11474;DHT22;5793;52.238;13.438;2023-04-03T14:54:57;5.80;99.90
11474;DHT22;5793;52.238;13.438;2023-04-03T14:57:28;5.70;99.90
11474;DHT22;5793;52.238;13.438;2023-04-03T14:59:56;5.50;99.90
11474;DHT22;5793;52.238;13.438;2023-04-03T15:02:28;5.50;99.90
11474;DHT22;5793;52.238;13.438;2023-04-03T15:04:57;5.40;99.90
11474;DHT22;5793;52.238;13.438;2023-04-03T15:07:27;5.40;99.90
11474;DHT22;5793;52.238;13.438;2023-04-03T15:09:56;5.40;99.90
11474;DHT22;5793;52.238;13.438;2023-04-03T15:12:24;5.60;99.90
11474;DHT22;5793;52.238;13.438;2023-04-03T15:14:53;5.70;99.90
11474;DHT22;5793;52.238;13.438;2023-04-03T15:17:29;5.90;99.90
11474;DHT22;5793;52.238;13.438;2023-04-03T15:19:59;5.90;98.90
11474;DHT22;5793;52.238;13.438;2023-04-03T15:22:27;6.00;99.90
11474;DHT22;5793;52.238;13.438;2023-04-03T15:24:55;6.00;99.90
11474;DHT22;5793;52.238;13.438;2023-04-03T15:27:22;6.10;99.90
11474;DHT22;5793;52.238;13.438;2023-04-03T15:29:50;5.90;95.60
11474;DHT22;5793;52.238;13.438;2023-04-03T15:32:19;5.80;97.00
11474;DHT22;5793;52.238;13.438;2023-04-03T15:34:47;5.60;99.90
11474;DHT22;5793;52.238;13.438;2023-04-03T15:37:16;5.50;99.90
11474;DHT22;5793;52.238;13.438;2023-04-03T15:39:44;5.50;99.90
11474;DHT22;5793;52.238;13.438;2023-04-03T15:42:12;5.30;99.90
11474;DHT22;5793;52.238;13.438;2023-04-03T15:44:40;5.40;99.90
11474;DHT22;5793;52.238;13.438;2023-04-03T15:47:08;5.40;99.90
11474;DHT22;5793;52.238;13.438;2023-04-03T15:49:38;5.20;99.90
11474;DHT22;5793;52.238;13.438;2023-04-03T15:52:06;5.00;99.90
11474;DHT22;5793;52.238;13.438;2023-04-03T15:54:33;5.00;99.90
11474;DHT22;5793;52.238;13.438;2023-04-03T15:57:01;5.00;99.90
11474;DHT22;5793;52.238;13.438;2023-04-03T15:59:29;5.00;99.90
11474;DHT22;5793;52.238;13.438;2023-04-03T16:01:59;4.90;99.90
11474;DHT22;5793;52.238;13.438;2023-04-03T16:04:28;4.80;99.90
11474;DHT22;5793;52.238;13.438;2023-04-03T16:07:00;4.80;99.90
11474;DHT22;5793;52.238;13.438;2023-04-03T16:09:28;4.80;99.90
11474;DHT22;5793;52.238;13.438;2023-04-03T16:11:56;4.80;99.90
11474;DHT22;5793;52.238;13.438;2023-04-03T16:14:24;4.80;99.90
11474;DHT22;5793;52.238;13.438;2023-04-03T16:16:52;4.80;99.90